Latest Weather Observations for St Kilda Harbour RMYS

IDV60901

Issued at 10:01 pm EDT Saturday 28 March 2015 (issued every 10 minutes, with the page automatically refreshed every 10 minutes)

About weather observations | Map of Melbourne area stations | Latest observations for Melbourne area | Other Formats
Station Details ID: 086220 Name: ST KILDA HARBOUR - RMYS Lat: -37.86 Lon: 144.96 Height: 6.4 m
Data from the previous 72 hours. | See also: Recent months for locations in Victoria
Date/Time
EDT
Tmp

°C
App
Tmp
°C
Dew
Point
°C
Rel
Hum
%
Delta-T

°C
Wind Press
QNH
hPa
Press
MSL
hPa
Rain
since
9 am
mm
Dir
 
Spd
km/h
Gust
km/h
Spd
kts
Gust
kts
28/10:00pm - - - - - NE 4 6 2 3 - - -
28/09:30pm - - - - - E 6 9 3 5 - - -
28/09:00pm - - - - - ESE 6 7 3 4 - - -
28/08:30pm - - - - - SE 7 11 4 6 - - -
28/08:00pm - - - - - SSE 15 17 8 9 - - -
28/07:30pm - - - - - SSE 17 19 9 10 - - -
28/07:00pm - - - - - SSE 17 19 9 10 - - -
28/06:30pm - - - - - SSE 17 20 9 11 - - -
28/06:00pm - - - - - S 17 20 9 11 - - -
28/05:30pm - - - - - S 17 19 9 10 - - -
28/05:00pm - - - - - S 17 19 9 10 - - -
28/04:30pm - - - - - S 19 20 10 11 - - -
28/04:00pm - - - - - S 19 20 10 11 - - -
28/03:30pm - - - - - S 15 17 8 9 - - -
28/03:00pm - - - - - S 11 13 6 7 - - -
28/02:30pm - - - - - S 9 11 5 6 - - -
28/02:00pm - - - - - SSE 7 11 4 6 - - -
28/01:30pm - - - - - SSE 6 9 3 5 - - -
28/01:00pm - - - - - SSE 6 9 3 5 - - -
28/12:30pm - - - - - S 7 11 4 6 - - -
28/12:00pm - - - - - SSW 9 11 5 6 - - -
28/11:30am - - - - - SW 11 15 6 8 - - -
28/11:00am - - - - - SW 11 17 6 9 - - -
28/10:30am - - - - - WSW 15 19 8 10 - - -
28/10:00am - - - - - W 13 15 7 8 - - -
28/09:30am - - - - - WSW 15 17 8 9 - - -
28/09:00am - - - - - WSW 19 22 10 12 - - -
28/08:30am - - - - - WSW 24 28 13 15 - - -
28/08:00am - - - - - SW 22 24 12 13 - - -
28/07:30am - - - - - SW 24 28 13 15 - - -
28/07:00am - - - - - WSW 24 30 13 16 - - -
28/06:30am - - - - - WSW 26 30 14 16 - - -
28/06:00am - - - - - WSW 24 30 13 16 - - -
28/05:30am - - - - - SW 30 35 16 19 - - -
28/05:00am - - - - - WSW 32 37 17 20 - - -
28/04:30am - - - - - WSW 32 35 17 19 - - -
28/04:00am - - - - - WSW 33 39 18 21 - - -
28/03:30am - - - - - SW 30 35 16 19 - - -
28/03:00am - - - - - WSW 28 33 15 18 - - -
28/02:30am - - - - - W 22 28 12 15 - - -
28/02:00am - - - - - W 19 22 10 12 - - -
28/01:30am - - - - - WSW 26 32 14 17 - - -
28/01:00am - - - - - WSW 28 33 15 18 - - -
28/12:30am - - - - - WSW 26 32 14 17 - - -
28/12:00am - - - - - WSW 26 30 14 16 - - -
 
Date/Time
EDT
Tmp

°C
App
Tmp
°C
Dew
Point
°C
Rel
Hum
%
Delta-T

°C
Wind Press
QNH
hPa
Press
MSL
hPa
Rain
since
9 am
mm
Dir
 
Spd
km/h
Gust
km/h
Spd
kts
Gust
kts
27/11:30pm - - - - - WSW 26 32 14 17 - - -
27/11:00pm - - - - - SW 22 26 12 14 - - -
27/10:30pm - - - - - SSW 26 35 14 19 - - -
27/10:00pm - - - - - SSW 28 35 15 19 - - -
27/09:30pm - - - - - SW 24 30 13 16 - - -
27/09:00pm - - - - - SSW 33 39 18 21 - - -
27/08:30pm - - - - - SW 26 30 14 16 - - -
27/08:00pm - - - - - SW 28 33 15 18 - - -
27/07:30pm - - - - - SSW 28 33 15 18 - - -
27/07:00pm - - - - - SSW 32 37 17 20 - - -
27/06:30pm - - - - - SSW 24 30 13 16 - - -
27/06:00pm - - - - - SW 28 32 15 17 - - -
27/05:30pm - - - - - WSW 32 39 17 21 - - -
27/05:00pm - - - - - SW 30 35 16 19 - - -
27/04:30pm - - - - - SW 32 37 17 20 - - -
27/04:00pm - - - - - SW 33 37 18 20 - - -
27/03:30pm - - - - - SW 35 43 19 23 - - -
27/03:00pm - - - - - SW 39 46 21 25 - - -
27/02:30pm - - - - - SW 39 46 21 25 - - -
27/02:00pm - - - - - SW 39 46 21 25 - - -
27/01:30pm - - - - - SW 41 50 22 27 - - -
27/01:00pm - - - - - SW 35 50 19 27 - - -
27/12:58pm - - - - - SW 32 50 17 27 - - -
27/12:30pm - - - - - SSW 37 43 20 23 - - -
27/12:00pm - - - - - SW 39 46 21 25 - - -
27/11:30am - - - - - WSW 39 48 21 26 - - -
27/11:00am - - - - - WSW 44 54 24 29 - - -
27/10:30am - - - - - WSW 44 52 24 28 - - -
27/10:00am - - - - - WSW 41 54 22 29 - - -
27/09:30am - - - - - WSW 41 52 22 28 - - -
27/09:00am - - - - - W 41 50 22 27 - - -
27/08:30am - - - - - WSW 44 56 24 30 - - -
27/08:00am - - - - - W 37 46 20 25 - - -
27/07:30am - - - - - W 39 50 21 27 - - -
27/07:00am - - - - - W 39 52 21 28 - - -
27/06:30am - - - - - W 35 46 19 25 - - -
27/06:16am - - - - - W 39 57 21 31 - - -
27/06:00am - - - - - W 35 52 19 28 - - -
27/05:30am - - - - - W 33 41 18 22 - - -
27/05:00am - - - - - W 30 39 16 21 - - -
27/04:30am - - - - - W 33 41 18 22 - - -
27/04:00am - - - - - W 37 44 20 24 - - -
27/03:30am - - - - - W 39 46 21 25 - - -
27/03:00am - - - - - W 39 46 21 25 - - -
27/02:30am - - - - - W 41 54 22 29 - - -
27/02:00am - - - - - W 43 56 23 30 - - -
27/01:30am - - - - - W 39 46 21 25 - - -
27/01:00am - - - - - W 39 52 21 28 - - -
27/12:30am - - - - - WNW 37 46 20 25 - - -
27/12:00am - - - - - W 33 43 18 23 - - -
 
Date/Time
EDT
Tmp

°C
App
Tmp
°C
Dew
Point
°C
Rel
Hum
%
Delta-T

°C
Wind Press
QNH
hPa
Press
MSL
hPa
Rain
since
9 am
mm
Dir
 
Spd
km/h
Gust
km/h
Spd
kts
Gust
kts
26/11:30pm - - - - - WNW 33 41 18 22 - - -
26/11:00pm - - - - - WNW 39 50 21 27 - - -
26/10:30pm - - - - - W 39 52 21 28 - - -
26/10:00pm - - - - - WNW 39 50 21 27 - - -
26/09:30pm - - - - - WNW 39 48 21 26 - - -
26/09:00pm - - - - - WNW 39 50 21 27 - - -
26/08:30pm - - - - - WNW 43 52 23 28 - - -
26/08:00pm - - - - - NW 44 59 24 32 - - -
26/07:30pm - - - - - WNW 44 57 24 31 - - -
26/07:00pm - - - - - NW 54 67 29 36 - - -
26/06:32pm - - - - - WNW 46 65 25 35 - - -
26/06:30pm - - - - - WNW 48 65 26 35 - - -
26/06:00pm - - - - - WNW 50 72 27 39 - - -
26/05:40pm - - - - - WNW 54 74 29 40 - - -
26/05:30pm - - - - - WNW 54 69 29 37 - - -
26/05:00pm - - - - - WNW 43 70 23 38 - - -
26/04:48pm - - - - - NW 43 61 23 33 - - -
26/04:30pm - - - - - WNW 37 54 20 29 - - -
26/04:25pm - - - - - WNW 39 48 21 26 - - -
26/04:00pm - - - - - NW 37 52 20 28 - - -
26/03:30pm - - - - - WNW 41 56 22 30 - - -
26/03:04pm - - - - - NW 37 52 20 28 - - -
26/03:00pm - - - - - NNW 33 46 18 25 - - -
26/02:49pm - - - - - NW 32 56 17 30 - - -
26/02:30pm - - - - - NW 37 48 20 26 - - -
26/02:00pm - - - - - NW 41 54 22 29 - - -
26/01:30pm - - - - - NW 39 54 21 29 - - -
26/01:00pm - - - - - WNW 41 54 22 29 - - -
26/12:43pm - - - - - WNW 35 54 19 29 - - -
26/12:30pm - - - - - NW 35 44 19 24 - - -
26/12:00pm - - - - - WNW 35 43 19 23 - - -
26/11:30am - - - - - WNW 33 46 18 25 - - -
26/11:00am - - - - - WNW 35 48 19 26 - - -
26/10:30am - - - - - WNW 33 48 18 26 - - -
26/10:00am - - - - - WNW 32 39 17 21 - - -
26/09:30am - - - - - NW 22 30 12 16 - - -
26/09:00am - - - - - NNW 17 24 9 13 - - -
26/08:30am - - - - - NNW 15 20 8 11 - - -
26/08:00am - - - - - NNW 15 20 8 11 - - -
26/07:30am - - - - - N 17 20 9 11 - - -
26/07:00am - - - - - NNW 19 24 10 13 - - -
26/06:30am - - - - - NNW 19 24 10 13 - - -
26/06:00am - - - - - NW 24 32 13 17 - - -
26/05:30am - - - - - NNW 17 24 9 13 - - -
26/05:00am - - - - - NNW 15 22 8 12 - - -
26/04:30am - - - - - NNW 17 22 9 12 - - -
26/04:00am - - - - - WNW 28 37 15 20 - - -
26/03:30am - - - - - NW 26 39 14 21 - - -
26/03:00am - - - - - WNW 30 37 16 20 - - -
26/02:30am - - - - - W 32 43 17 23 - - -
26/02:00am - - - - - W 37 52 20 28 - - -
26/01:30am - - - - - WSW 44 54 24 29 - - -
26/01:00am - - - - - WSW 52 65 28 35 - - -
26/12:48am - - - - - WNW 39 69 21 37 - - -
26/12:43am - - - - - NNW 28 57 15 31 - - -
26/12:30am - - - - - N 24 35 13 19 - - -
26/12:00am - - - - - NNE 15 20 8 11 - - -
 
Date/Time
EDT
Tmp

°C
App
Tmp
°C
Dew
Point
°C
Rel
Hum
%
Delta-T

°C
Wind Press
QNH
hPa
Press
MSL
hPa
Rain
since
9 am
mm
Dir
 
Spd
km/h
Gust
km/h
Spd
kts
Gust
kts
25/11:30pm - - - - - N 11 17 6 9 - - -
25/11:00pm - - - - - N 15 20 8 11 - - -
25/10:30pm - - - - - N 7 9 4 5 - - -

Latest Capital City Observations: Canberra | Sydney | Melbourne | Brisbane | Adelaide | Perth | Hobart | Darwin

Other Formats:

Comma delimited format used in spreadsheet applications
http://www.bom.gov.au/fwo/IDV60901/IDV60901.95864.axf

JavaScript Object Notation format (JSON) in row-major order
http://www.bom.gov.au/fwo/IDV60901/IDV60901.95864.json